sensor_id;sensor_type;location;lat;lon;timestamp;P1;durP1;ratioP1;P2;durP2;ratioP2
18720;SDS011;9489;50.948;3.114;2022-09-21T00:01:25;8.45;;;7.80;;
18720;SDS011;9489;50.948;3.114;2022-09-21T00:03:57;9.68;;;8.77;;
18720;SDS011;9489;50.948;3.114;2022-09-21T00:06:27;9.80;;;8.82;;
18720;SDS011;9489;50.948;3.114;2022-09-21T00:08:56;11.57;;;10.43;;
18720;SDS011;9489;50.948;3.114;2022-09-21T00:11:23;11.00;;;9.90;;
18720;SDS011;9489;50.948;3.114;2022-09-21T00:13:55;8.13;;;7.47;;
18720;SDS011;9489;50.948;3.114;2022-09-21T00:16:24;8.60;;;7.80;;
18720;SDS011;9489;50.948;3.114;2022-09-21T00:18:50;7.75;;;7.05;;
18720;SDS011;9489;50.948;3.114;2022-09-21T00:21:16;7.72;;;7.07;;
18720;SDS011;9489;50.948;3.114;2022-09-21T00:23:42;10.05;;;7.90;;
18720;SDS011;9489;50.948;3.114;2022-09-21T00:26:12;8.52;;;7.65;;
18720;SDS011;9489;50.948;3.114;2022-09-21T00:28:40;8.93;;;8.10;;
18720;SDS011;9489;50.948;3.114;2022-09-21T00:31:07;9.23;;;8.18;;
18720;SDS011;9489;50.948;3.114;2022-09-21T00:33:38;8.88;;;8.07;;
18720;SDS011;9489;50.948;3.114;2022-09-21T00:36:06;9.18;;;8.30;;
18720;SDS011;9489;50.948;3.114;2022-09-21T00:38:33;8.52;;;7.55;;
18720;SDS011;9489;50.948;3.114;2022-09-21T00:41:00;9.68;;;7.90;;
18720;SDS011;9489;50.948;3.114;2022-09-21T00:43:26;8.15;;;7.45;;
18720;SDS011;9489;50.948;3.114;2022-09-21T00:46:02;9.20;;;8.18;;
18720;SDS011;9489;50.948;3.114;2022-09-21T00:48:32;8.23;;;7.53;;
18720;SDS011;9489;50.948;3.114;2022-09-21T00:50:59;7.68;;;6.97;;
18720;SDS011;9489;50.948;3.114;2022-09-21T00:53:29;7.45;;;6.75;;
18720;SDS011;9489;50.948;3.114;2022-09-21T00:55:56;7.75;;;7.10;;
18720;SDS011;9489;50.948;3.114;2022-09-21T00:58:27;9.43;;;8.60;;
18720;SDS011;9489;50.948;3.114;2022-09-21T01:00:57;8.52;;;7.72;;
18720;SDS011;9489;50.948;3.114;2022-09-21T01:03:25;8.35;;;7.55;;
18720;SDS011;9489;50.948;3.114;2022-09-21T01:05:53;9.00;;;8.20;;
18720;SDS011;9489;50.948;3.114;2022-09-21T01:08:19;9.20;;;8.25;;
18720;SDS011;9489;50.948;3.114;2022-09-21T01:13:27;7.82;;;7.15;;
18720;SDS011;9489;50.948;3.114;2022-09-21T01:16:14;8.35;;;7.43;;
18720;SDS011;9489;50.948;3.114;2022-09-21T01:19:26;6.72;;;6.13;;
18720;SDS011;9489;50.948;3.114;2022-09-21T01:24:56;7.93;;;7.32;;
18720;SDS011;9489;50.948;3.114;2022-09-21T01:30:18;8.82;;;7.90;;
18720;SDS011;9489;50.948;3.114;2022-09-21T01:35:36;9.40;;;8.27;;
18720;SDS011;9489;50.948;3.114;2022-09-21T01:38:11;8.18;;;7.35;;
18720;SDS011;9489;50.948;3.114;2022-09-21T01:40:46;8.43;;;7.63;;
18720;SDS011;9489;50.948;3.114;2022-09-21T01:43:22;7.50;;;6.85;;
18720;SDS011;9489;50.948;3.114;2022-09-21T01:45:51;7.43;;;6.63;;
18720;SDS011;9489;50.948;3.114;2022-09-21T01:48:19;6.95;;;6.22;;
18720;SDS011;9489;50.948;3.114;2022-09-21T01:50:49;8.20;;;7.40;;
18720;SDS011;9489;50.948;3.114;2022-09-21T01:53:36;9.82;;;7.82;;
18720;SDS011;9489;50.948;3.114;2022-09-21T01:56:17;8.52;;;7.82;;
18720;SDS011;9489;50.948;3.114;2022-09-21T02:01:58;9.25;;;8.45;;
18720;SDS011;9489;50.948;3.114;2022-09-21T02:04:28;7.47;;;6.88;;
18720;SDS011;9489;50.948;3.114;2022-09-21T02:06:54;9.82;;;8.43;;
18720;SDS011;9489;50.948;3.114;2022-09-21T02:09:20;9.63;;;8.63;;
18720;SDS011;9489;50.948;3.114;2022-09-21T02:11:48;9.57;;;8.68;;
18720;SDS011;9489;50.948;3.114;2022-09-21T02:14:20;9.20;;;8.40;;
18720;SDS011;9489;50.948;3.114;2022-09-21T02:19:56;10.85;;;9.75;;
18720;SDS011;9489;50.948;3.114;2022-09-21T02:25:08;10.00;;;8.90;;
18720;SDS011;9489;50.948;3.114;2022-09-21T02:30:27;10.43;;;9.43;;
18720;SDS011;9489;50.948;3.114;2022-09-21T02:33:00;9.52;;;8.63;;
18720;SDS011;9489;50.948;3.114;2022-09-21T02:40:53;9.80;;;8.38;;
18720;SDS011;9489;50.948;3.114;2022-09-21T02:43:49;8.98;;;8.18;;
18720;SDS011;9489;50.948;3.114;2022-09-21T02:48:49;9.55;;;8.60;;
18720;SDS011;9489;50.948;3.114;2022-09-21T02:51:39;9.43;;;8.30;;
18720;SDS011;9489;50.948;3.114;2022-09-21T02:54:06;10.00;;;9.00;;
18720;SDS011;9489;50.948;3.114;2022-09-21T02:56:35;11.20;;;10.13;;
18720;SDS011;9489;50.948;3.114;2022-09-21T02:59:02;9.35;;;8.45;;
18720;SDS011;9489;50.948;3.114;2022-09-21T03:01:29;10.65;;;9.57;;
18720;SDS011;9489;50.948;3.114;2022-09-21T03:03:57;10.57;;;9.57;;
18720;SDS011;9489;50.948;3.114;2022-09-21T03:06:22;10.25;;;9.23;;
18720;SDS011;9489;50.948;3.114;2022-09-21T03:08:48;9.13;;;8.32;;
18720;SDS011;9489;50.948;3.114;2022-09-21T03:11:17;10.35;;;9.32;;
18720;SDS011;9489;50.948;3.114;2022-09-21T03:13:43;10.00;;;9.10;;
18720;SDS011;9489;50.948;3.114;2022-09-21T03:16:09;10.68;;;9.73;;
18720;SDS011;9489;50.948;3.114;2022-09-21T03:18:35;10.18;;;9.07;;
18720;SDS011;9489;50.948;3.114;2022-09-21T03:21:01;9.98;;;9.18;;
18720;SDS011;9489;50.948;3.114;2022-09-21T03:23:27;10.57;;;9.57;;
18720;SDS011;9489;50.948;3.114;2022-09-21T03:25:53;10.52;;;9.63;;
18720;SDS011;9489;50.948;3.114;2022-09-21T03:28:19;11.65;;;10.65;;
18720;SDS011;9489;50.948;3.114;2022-09-21T03:30:45;10.45;;;9.50;;
18720;SDS011;9489;50.948;3.114;2022-09-21T03:33:13;10.43;;;9.52;;
18720;SDS011;9489;50.948;3.114;2022-09-21T03:35:39;10.18;;;9.18;;
18720;SDS011;9489;50.948;3.114;2022-09-21T03:38:05;10.05;;;9.23;;
18720;SDS011;9489;50.948;3.114;2022-09-21T03:40:31;11.45;;;10.32;;
18720;SDS011;9489;50.948;3.114;2022-09-21T03:42:57;11.10;;;10.20;;
18720;SDS011;9489;50.948;3.114;2022-09-21T03:45:22;10.45;;;9.50;;
18720;SDS011;9489;50.948;3.114;2022-09-21T03:47:55;11.60;;;10.48;;
18720;SDS011;9489;50.948;3.114;2022-09-21T03:50:22;11.90;;;10.65;;
18720;SDS011;9489;50.948;3.114;2022-09-21T03:52:48;11.43;;;10.48;;
18720;SDS011;9489;50.948;3.114;2022-09-21T03:55:14;12.27;;;11.02;;
18720;SDS011;9489;50.948;3.114;2022-09-21T03:57:40;12.05;;;10.95;;
18720;SDS011;9489;50.948;3.114;2022-09-21T04:00:06;10.93;;;9.82;;
18720;SDS011;9489;50.948;3.114;2022-09-21T04:02:34;11.82;;;10.25;;
18720;SDS011;9489;50.948;3.114;2022-09-21T04:05:00;11.52;;;10.40;;
18720;SDS011;9489;50.948;3.114;2022-09-21T04:07:29;11.25;;;10.25;;
18720;SDS011;9489;50.948;3.114;2022-09-21T04:09:58;11.55;;;10.52;;
18720;SDS011;9489;50.948;3.114;2022-09-21T04:12:24;13.00;;;10.52;;
18720;SDS011;9489;50.948;3.114;2022-09-21T04:14:50;10.75;;;9.85;;
18720;SDS011;9489;50.948;3.114;2022-09-21T04:17:16;12.90;;;11.75;;
18720;SDS011;9489;50.948;3.114;2022-09-21T04:19:42;11.52;;;10.32;;
18720;SDS011;9489;50.948;3.114;2022-09-21T04:22:11;11.63;;;10.55;;
18720;SDS011;9489;50.948;3.114;2022-09-21T04:24:37;12.35;;;11.00;;
18720;SDS011;9489;50.948;3.114;2022-09-21T04:27:07;10.60;;;9.70;;
18720;SDS011;9489;50.948;3.114;2022-09-21T04:29:33;12.88;;;11.57;;
18720;SDS011;9489;50.948;3.114;2022-09-21T04:31:59;13.23;;;11.55;;
18720;SDS011;9489;50.948;3.114;2022-09-21T04:34:24;12.20;;;11.10;;
18720;SDS011;9489;50.948;3.114;2022-09-21T04:36:50;10.82;;;9.95;;
18720;SDS011;9489;50.948;3.114;2022-09-21T04:39:18;11.93;;;10.93;;
18720;SDS011;9489;50.948;3.114;2022-09-21T04:41:43;12.05;;;10.88;;
18720;SDS011;9489;50.948;3.114;2022-09-21T04:44:09;13.02;;;11.38;;
18720;SDS011;9489;50.948;3.114;2022-09-21T04:46:35;13.30;;;11.43;;
18720;SDS011;9489;50.948;3.114;2022-09-21T04:49:01;13.55;;;11.75;;
18720;SDS011;9489;50.948;3.114;2022-09-21T04:51:26;13.65;;;12.35;;
18720;SDS011;9489;50.948;3.114;2022-09-21T04:53:52;12.07;;;11.05;;
18720;SDS011;9489;50.948;3.114;2022-09-21T04:56:18;12.40;;;11.27;;
18720;SDS011;9489;50.948;3.114;2022-09-21T04:58:43;12.48;;;11.18;;
18720;SDS011;9489;50.948;3.114;2022-09-21T05:01:09;11.75;;;10.55;;
18720;SDS011;9489;50.948;3.114;2022-09-21T05:03:35;13.32;;;12.13;;
18720;SDS011;9489;50.948;3.114;2022-09-21T05:06:01;11.98;;;11.02;;
18720;SDS011;9489;50.948;3.114;2022-09-21T05:08:27;13.52;;;12.18;;
18720;SDS011;9489;50.948;3.114;2022-09-21T05:11:13;11.40;;;10.30;;
18720;SDS011;9489;50.948;3.114;2022-09-21T05:13:40;10.93;;;10.02;;
18720;SDS011;9489;50.948;3.114;2022-09-21T05:16:06;12.23;;;10.95;;
18720;SDS011;9489;50.948;3.114;2022-09-21T05:18:33;11.98;;;10.77;;
18720;SDS011;9489;50.948;3.114;2022-09-21T05:20:59;12.93;;;11.70;;
18720;SDS011;9489;50.948;3.114;2022-09-21T05:23:26;11.77;;;10.60;;
18720;SDS011;9489;50.948;3.114;2022-09-21T05:25:53;12.32;;;11.32;;
18720;SDS011;9489;50.948;3.114;2022-09-21T05:28:20;12.07;;;11.05;;
18720;SDS011;9489;50.948;3.114;2022-09-21T05:33:28;11.38;;;10.38;;
18720;SDS011;9489;50.948;3.114;2022-09-21T05:38:57;12.15;;;11.05;;
18720;SDS011;9489;50.948;3.114;2022-09-21T05:41:22;13.00;;;11.77;;
18720;SDS011;9489;50.948;3.114;2022-09-21T05:43:48;13.18;;;11.93;;
18720;SDS011;9489;50.948;3.114;2022-09-21T05:49:05;15.55;;;13.88;;
18720;SDS011;9489;50.948;3.114;2022-09-21T05:57:01;11.82;;;10.77;;
18720;SDS011;9489;50.948;3.114;2022-09-21T05:59:40;13.85;;;12.50;;
18720;SDS011;9489;50.948;3.114;2022-09-21T06:05:20;13.50;;;12.13;;
18720;SDS011;9489;50.948;3.114;2022-09-21T06:07:46;12.90;;;11.68;;
18720;SDS011;9489;50.948;3.114;2022-09-21T06:10:12;15.38;;;13.55;;
18720;SDS011;9489;50.948;3.114;2022-09-21T06:12:38;14.82;;;13.48;;
18720;SDS011;9489;50.948;3.114;2022-09-21T06:15:04;12.77;;;11.25;;
18720;SDS011;9489;50.948;3.114;2022-09-21T06:17:32;20.58;;;13.98;;
18720;SDS011;9489;50.948;3.114;2022-09-21T06:19:57;15.45;;;13.02;;
18720;SDS011;9489;50.948;3.114;2022-09-21T06:22:23;12.98;;;11.63;;
18720;SDS011;9489;50.948;3.114;2022-09-21T06:24:48;13.85;;;11.43;;
18720;SDS011;9489;50.948;3.114;2022-09-21T06:27:14;19.67;;;12.60;;
18720;SDS011;9489;50.948;3.114;2022-09-21T06:29:40;11.68;;;10.52;;
18720;SDS011;9489;50.948;3.114;2022-09-21T06:32:05;13.60;;;12.30;;
18720;SDS011;9489;50.948;3.114;2022-09-21T06:34:31;14.15;;;12.85;;
18720;SDS011;9489;50.948;3.114;2022-09-21T06:36:56;16.38;;;13.20;;
18720;SDS011;9489;50.948;3.114;2022-09-21T06:39:22;14.70;;;13.35;;
18720;SDS011;9489;50.948;3.114;2022-09-21T06:41:48;14.93;;;13.43;;
18720;SDS011;9489;50.948;3.114;2022-09-21T06:44:13;17.48;;;12.80;;
18720;SDS011;9489;50.948;3.114;2022-09-21T06:46:39;13.93;;;12.23;;
18720;SDS011;9489;50.948;3.114;2022-09-21T06:49:04;14.95;;;12.38;;
18720;SDS011;9489;50.948;3.114;2022-09-21T06:51:30;16.08;;;12.57;;
18720;SDS011;9489;50.948;3.114;2022-09-21T06:53:56;15.85;;;12.98;;
18720;SDS011;9489;50.948;3.114;2022-09-21T06:56:22;13.50;;;12.13;;
18720;SDS011;9489;50.948;3.114;2022-09-21T06:58:48;13.00;;;11.50;;
18720;SDS011;9489;50.948;3.114;2022-09-21T07:01:14;16.70;;;11.65;;
18720;SDS011;9489;50.948;3.114;2022-09-21T07:03:40;17.67;;;12.40;;
18720;SDS011;9489;50.948;3.114;2022-09-21T07:06:07;22.33;;;14.13;;
18720;SDS011;9489;50.948;3.114;2022-09-21T07:08:39;17.00;;;13.80;;
18720;SDS011;9489;50.948;3.114;2022-09-21T07:11:05;21.70;;;12.93;;
18720;SDS011;9489;50.948;3.114;2022-09-21T07:13:31;18.15;;;12.52;;
18720;SDS011;9489;50.948;3.114;2022-09-21T07:15:56;16.85;;;12.15;;
18720;SDS011;9489;50.948;3.114;2022-09-21T07:18:22;23.10;;;13.32;;
18720;SDS011;9489;50.948;3.114;2022-09-21T07:20:47;18.45;;;11.82;;
18720;SDS011;9489;50.948;3.114;2022-09-21T07:23:15;22.45;;;12.02;;
18720;SDS011;9489;50.948;3.114;2022-09-21T07:25:43;21.02;;;12.35;;
18720;SDS011;9489;50.948;3.114;2022-09-21T07:28:10;24.23;;;11.55;;
18720;SDS011;9489;50.948;3.114;2022-09-21T07:30:37;21.00;;;10.95;;
18720;SDS011;9489;50.948;3.114;2022-09-21T07:33:04;22.35;;;10.95;;
18720;SDS011;9489;50.948;3.114;2022-09-21T07:35:30;23.77;;;10.88;;
18720;SDS011;9489;50.948;3.114;2022-09-21T07:37:59;20.42;;;9.95;;
18720;SDS011;9489;50.948;3.114;2022-09-21T07:40:27;30.63;;;11.40;;
18720;SDS011;9489;50.948;3.114;2022-09-21T07:42:56;21.48;;;11.05;;
18720;SDS011;9489;50.948;3.114;2022-09-21T07:45:23;19.92;;;9.38;;
18720;SDS011;9489;50.948;3.114;2022-09-21T07:47:49;18.08;;;10.25;;
18720;SDS011;9489;50.948;3.114;2022-09-21T07:50:18;19.83;;;16.58;;
18720;SDS011;9489;50.948;3.114;2022-09-21T07:52:44;18.00;;;16.20;;
18720;SDS011;9489;50.948;3.114;2022-09-21T07:55:10;17.55;;;15.70;;
18720;SDS011;9489;50.948;3.114;2022-09-21T07:57:35;17.80;;;15.73;;
18720;SDS011;9489;50.948;3.114;2022-09-21T08:00:19;18.98;;;15.98;;
18720;SDS011;9489;50.948;3.114;2022-09-21T08:02:45;15.05;;;13.50;;
18720;SDS011;9489;50.948;3.114;2022-09-21T08:05:10;12.15;;;10.82;;
18720;SDS011;9489;50.948;3.114;2022-09-21T08:07:36;10.38;;;9.30;;
18720;SDS011;9489;50.948;3.114;2022-09-21T08:10:02;11.13;;;9.63;;
18720;SDS011;9489;50.948;3.114;2022-09-21T08:12:28;11.35;;;10.15;;
18720;SDS011;9489;50.948;3.114;2022-09-21T08:14:53;11.50;;;10.25;;
18720;SDS011;9489;50.948;3.114;2022-09-21T08:17:19;10.45;;;9.45;;
18720;SDS011;9489;50.948;3.114;2022-09-21T08:19:44;13.52;;;9.63;;
18720;SDS011;9489;50.948;3.114;2022-09-21T08:22:11;11.55;;;9.15;;
18720;SDS011;9489;50.948;3.114;2022-09-21T08:24:38;11.73;;;9.95;;
18720;SDS011;9489;50.948;3.114;2022-09-21T08:27:08;10.70;;;8.18;;
18720;SDS011;9489;50.948;3.114;2022-09-21T08:29:34;8.52;;;5.63;;
18720;SDS011;9489;50.948;3.114;2022-09-21T08:32:00;10.30;;;6.22;;
18720;SDS011;9489;50.948;3.114;2022-09-21T08:34:26;6.30;;;5.45;;
18720;SDS011;9489;50.948;3.114;2022-09-21T08:36:52;5.65;;;4.10;;
18720;SDS011;9489;50.948;3.114;2022-09-21T08:39:17;5.55;;;5.00;;
18720;SDS011;9489;50.948;3.114;2022-09-21T08:44:41;6.30;;;5.70;;
18720;SDS011;9489;50.948;3.114;2022-09-21T08:47:18;6.47;;;4.97;;
18720;SDS011;9489;50.948;3.114;2022-09-21T08:49:50;7.68;;;4.60;;
18720;SDS011;9489;50.948;3.114;2022-09-21T08:52:19;8.68;;;4.85;;
18720;SDS011;9489;50.948;3.114;2022-09-21T08:54:59;5.97;;;4.10;;
18720;SDS011;9489;50.948;3.114;2022-09-21T08:57:29;5.95;;;5.07;;
18720;SDS011;9489;50.948;3.114;2022-09-21T08:59:57;6.78;;;5.07;;
18720;SDS011;9489;50.948;3.114;2022-09-21T09:08:21;6.50;;;3.90;;
18720;SDS011;9489;50.948;3.114;2022-09-21T09:11:10;4.97;;;3.10;;
18720;SDS011;9489;50.948;3.114;2022-09-21T09:19:30;5.38;;;3.88;;
18720;SDS011;9489;50.948;3.114;2022-09-21T09:22:03;5.55;;;3.72;;
18720;SDS011;9489;50.948;3.114;2022-09-21T09:24:35;6.18;;;4.28;;
18720;SDS011;9489;50.948;3.114;2022-09-21T09:27:13;7.85;;;6.88;;
18720;SDS011;9489;50.948;3.114;2022-09-21T09:29:58;8.05;;;3.83;;
18720;SDS011;9489;50.948;3.114;2022-09-21T09:32:33;5.85;;;3.88;;
18720;SDS011;9489;50.948;3.114;2022-09-21T09:35:24;5.90;;;3.80;;
18720;SDS011;9489;50.948;3.114;2022-09-21T09:38:01;7.30;;;3.22;;
18720;SDS011;9489;50.948;3.114;2022-09-21T09:44:22;5.25;;;3.40;;
18720;SDS011;9489;50.948;3.114;2022-09-21T09:50:26;6.53;;;2.80;;
18720;SDS011;9489;50.948;3.114;2022-09-21T09:52:28;5.07;;;3.20;;
18720;SDS011;9489;50.948;3.114;2022-09-21T09:54:55;4.82;;;3.45;;
18720;SDS011;9489;50.948;3.114;2022-09-21T09:57:26;5.47;;;3.10;;
18720;SDS011;9489;50.948;3.114;2022-09-21T09:59:58;4.70;;;3.17;;
18720;SDS011;9489;50.948;3.114;2022-09-21T10:02:27;3.92;;;3.45;;
18720;SDS011;9489;50.948;3.114;2022-09-21T10:07:42;6.45;;;4.85;;
18720;SDS011;9489;50.948;3.114;2022-09-21T10:15:30;6.20;;;3.97;;
18720;SDS011;9489;50.948;3.114;2022-09-21T10:17:57;3.40;;;3.10;;
18720;SDS011;9489;50.948;3.114;2022-09-21T10:20:52;3.65;;;2.67;;
18720;SDS011;9489;50.948;3.114;2022-09-21T10:23:22;3.58;;;3.28;;
18720;SDS011;9489;50.948;3.114;2022-09-21T10:26:01;4.40;;;3.03;;
18720;SDS011;9489;50.948;3.114;2022-09-21T10:28:32;4.40;;;2.97;;
18720;SDS011;9489;50.948;3.114;2022-09-21T10:31:15;5.97;;;3.13;;
18720;SDS011;9489;50.948;3.114;2022-09-21T10:33:47;3.70;;;3.08;;
18720;SDS011;9489;50.948;3.114;2022-09-21T10:36:26;4.25;;;2.60;;
18720;SDS011;9489;50.948;3.114;2022-09-21T10:39:08;4.45;;;2.50;;
18720;SDS011;9489;50.948;3.114;2022-09-21T10:41:53;3.40;;;2.05;;
18720;SDS011;9489;50.948;3.114;2022-09-21T10:44:21;4.47;;;2.30;;
18720;SDS011;9489;50.948;3.114;2022-09-21T10:46:50;3.00;;;2.80;;
18720;SDS011;9489;50.948;3.114;2022-09-21T10:49:23;3.40;;;2.78;;
18720;SDS011;9489;50.948;3.114;2022-09-21T10:51:52;2.72;;;2.25;;
18720;SDS011;9489;50.948;3.114;2022-09-21T10:54:21;5.28;;;2.90;;
18720;SDS011;9489;50.948;3.114;2022-09-21T10:56:56;6.20;;;2.63;;
18720;SDS011;9489;50.948;3.114;2022-09-21T10:59:25;4.68;;;2.42;;
18720;SDS011;9489;50.948;3.114;2022-09-21T11:01:53;4.55;;;2.13;;
18720;SDS011;9489;50.948;3.114;2022-09-21T11:07:01;4.82;;;2.33;;
18720;SDS011;9489;50.948;3.114;2022-09-21T11:09:49;2.70;;;2.20;;
18720;SDS011;9489;50.948;3.114;2022-09-21T11:12:40;5.45;;;2.58;;
18720;SDS011;9489;50.948;3.114;2022-09-21T11:17:46;2.95;;;2.55;;
18720;SDS011;9489;50.948;3.114;2022-09-21T11:20:32;2.83;;;2.55;;
18720;SDS011;9489;50.948;3.114;2022-09-21T11:23:15;2.85;;;1.42;;
18720;SDS011;9489;50.948;3.114;2022-09-21T11:29:01;3.65;;;1.42;;
18720;SDS011;9489;50.948;3.114;2022-09-21T11:42:43;2.10;;;1.40;;
18720;SDS011;9489;50.948;3.114;2022-09-21T11:53:22;4.40;;;1.75;;
18720;SDS011;9489;50.948;3.114;2022-09-21T11:56:52;2.35;;;1.33;;
18720;SDS011;9489;50.948;3.114;2022-09-21T12:02:08;2.70;;;1.70;;
18720;SDS011;9489;50.948;3.114;2022-09-21T12:10:43;2.88;;;1.33;;
18720;SDS011;9489;50.948;3.114;2022-09-21T12:13:23;4.90;;;1.45;;
18720;SDS011;9489;50.948;3.114;2022-09-21T12:21:47;2.83;;;1.42;;
18720;SDS011;9489;50.948;3.114;2022-09-21T12:24:42;4.50;;;1.60;;
18720;SDS011;9489;50.948;3.114;2022-09-21T12:27:19;3.67;;;2.03;;
18720;SDS011;9489;50.948;3.114;2022-09-21T12:29:46;2.65;;;1.88;;
18720;SDS011;9489;50.948;3.114;2022-09-21T12:32:19;3.97;;;1.80;;
18720;SDS011;9489;50.948;3.114;2022-09-21T12:34:53;2.50;;;1.63;;
18720;SDS011;9489;50.948;3.114;2022-09-21T12:37:25;4.15;;;1.95;;
18720;SDS011;9489;50.948;3.114;2022-09-21T12:40:20;4.13;;;1.90;;
18720;SDS011;9489;50.948;3.114;2022-09-21T12:45:45;2.85;;;1.65;;
18720;SDS011;9489;50.948;3.114;2022-09-21T12:48:50;3.50;;;1.80;;
18720;SDS011;9489;50.948;3.114;2022-09-21T12:54:00;2.38;;;2.08;;
18720;SDS011;9489;50.948;3.114;2022-09-21T12:57:00;6.50;;;2.25;;
18720;SDS011;9489;50.948;3.114;2022-09-21T13:02:42;2.22;;;2.03;;
18720;SDS011;9489;50.948;3.114;2022-09-21T13:08:09;2.45;;;1.83;;
18720;SDS011;9489;50.948;3.114;2022-09-21T13:21:25;4.30;;;2.28;;
18720;SDS011;9489;50.948;3.114;2022-09-21T13:31:42;2.22;;;2.05;;
18720;SDS011;9489;50.948;3.114;2022-09-21T13:34:30;2.72;;;2.22;;
18720;SDS011;9489;50.948;3.114;2022-09-21T13:47:38;3.70;;;2.30;;
18720;SDS011;9489;50.948;3.114;2022-09-21T13:53:04;4.45;;;2.83;;
18720;SDS011;9489;50.948;3.114;2022-09-21T13:55:58;4.43;;;2.17;;
18720;SDS011;9489;50.948;3.114;2022-09-21T13:58:33;3.47;;;2.08;;
18720;SDS011;9489;50.948;3.114;2022-09-21T14:01:16;3.22;;;2.05;;
18720;SDS011;9489;50.948;3.114;2022-09-21T14:03:49;4.78;;;2.17;;
18720;SDS011;9489;50.948;3.114;2022-09-21T14:06:22;3.00;;;1.88;;
18720;SDS011;9489;50.948;3.114;2022-09-21T14:08:59;4.97;;;1.90;;
18720;SDS011;9489;50.948;3.114;2022-09-21T14:11:39;3.50;;;2.25;;
18720;SDS011;9489;50.948;3.114;2022-09-21T14:24:43;4.85;;;2.20;;
18720;SDS011;9489;50.948;3.114;2022-09-21T14:27:30;4.13;;;2.50;;
18720;SDS011;9489;50.948;3.114;2022-09-21T14:32:28;3.70;;;1.80;;
18720;SDS011;9489;50.948;3.114;2022-09-21T14:35:04;4.32;;;1.95;;
18720;SDS011;9489;50.948;3.114;2022-09-21T14:37:39;2.78;;;1.65;;
18720;SDS011;9489;50.948;3.114;2022-09-21T14:40:16;3.05;;;1.95;;
18720;SDS011;9489;50.948;3.114;2022-09-21T14:42:47;3.05;;;1.80;;
18720;SDS011;9489;50.948;3.114;2022-09-21T14:45:15;4.22;;;1.70;;
18720;SDS011;9489;50.948;3.114;2022-09-21T14:50:45;4.15;;;1.80;;
18720;SDS011;9489;50.948;3.114;2022-09-21T14:56:16;4.30;;;2.13;;
18720;SDS011;9489;50.948;3.114;2022-09-21T15:01:54;3.92;;;2.30;;
18720;SDS011;9489;50.948;3.114;2022-09-21T15:04:30;10.52;;;2.72;;
18720;SDS011;9489;50.948;3.114;2022-09-21T15:18:46;4.72;;;2.15;;
18720;SDS011;9489;50.948;3.114;2022-09-21T15:21:27;6.07;;;2.30;;
18720;SDS011;9489;50.948;3.114;2022-09-21T15:23:54;2.85;;;2.22;;
18720;SDS011;9489;50.948;3.114;2022-09-21T15:26:28;4.93;;;2.83;;
18720;SDS011;9489;50.948;3.114;2022-09-21T15:28:58;5.13;;;2.63;;
18720;SDS011;9489;50.948;3.114;2022-09-21T15:31:30;5.50;;;3.10;;
18720;SDS011;9489;50.948;3.114;2022-09-21T15:34:03;3.13;;;2.22;;
18720;SDS011;9489;50.948;3.114;2022-09-21T15:36:30;4.03;;;2.63;;
18720;SDS011;9489;50.948;3.114;2022-09-21T15:38:58;3.92;;;2.65;;
18720;SDS011;9489;50.948;3.114;2022-09-21T15:43:59;3.72;;;2.08;;
18720;SDS011;9489;50.948;3.114;2022-09-21T15:46:36;4.68;;;2.47;;
18720;SDS011;9489;50.948;3.114;2022-09-21T15:49:02;3.58;;;2.00;;
18720;SDS011;9489;50.948;3.114;2022-09-21T15:51:30;2.65;;;1.92;;
18720;SDS011;9489;50.948;3.114;2022-09-21T15:54:13;4.78;;;2.50;;
18720;SDS011;9489;50.948;3.114;2022-09-21T15:56:53;2.92;;;2.65;;
18720;SDS011;9489;50.948;3.114;2022-09-21T15:59:20;5.15;;;2.75;;
18720;SDS011;9489;50.948;3.114;2022-09-21T16:01:51;9.75;;;3.20;;
18720;SDS011;9489;50.948;3.114;2022-09-21T16:04:22;2.83;;;2.20;;
18720;SDS011;9489;50.948;3.114;2022-09-21T16:09:40;5.72;;;2.50;;
18720;SDS011;9489;50.948;3.114;2022-09-21T16:14:52;4.03;;;3.20;;
18720;SDS011;9489;50.948;3.114;2022-09-21T16:17:28;7.40;;;3.00;;
18720;SDS011;9489;50.948;3.114;2022-09-21T16:22:27;6.07;;;3.40;;
18720;SDS011;9489;50.948;3.114;2022-09-21T16:24:56;5.30;;;3.22;;
18720;SDS011;9489;50.948;3.114;2022-09-21T16:27:24;6.45;;;2.85;;
18720;SDS011;9489;50.948;3.114;2022-09-21T16:29:56;6.13;;;3.60;;
18720;SDS011;9489;50.948;3.114;2022-09-21T16:34:51;5.25;;;3.38;;
18720;SDS011;9489;50.948;3.114;2022-09-21T16:39:44;3.92;;;3.22;;
18720;SDS011;9489;50.948;3.114;2022-09-21T16:42:10;5.20;;;3.10;;
18720;SDS011;9489;50.948;3.114;2022-09-21T16:44:37;4.85;;;3.40;;
18720;SDS011;9489;50.948;3.114;2022-09-21T16:47:13;5.82;;;3.20;;
18720;SDS011;9489;50.948;3.114;2022-09-21T16:49:40;3.72;;;3.30;;
18720;SDS011;9489;50.948;3.114;2022-09-21T16:52:06;5.07;;;3.72;;
18720;SDS011;9489;50.948;3.114;2022-09-21T16:54:32;4.80;;;2.92;;
18720;SDS011;9489;50.948;3.114;2022-09-21T16:56:59;3.95;;;3.35;;
18720;SDS011;9489;50.948;3.114;2022-09-21T16:59:26;3.70;;;3.00;;
18720;SDS011;9489;50.948;3.114;2022-09-21T17:01:54;7.88;;;3.85;;
18720;SDS011;9489;50.948;3.114;2022-09-21T17:04:22;6.95;;;3.83;;
18720;SDS011;9489;50.948;3.114;2022-09-21T17:06:55;5.15;;;3.15;;
18720;SDS011;9489;50.948;3.114;2022-09-21T17:11:58;6.90;;;4.07;;
18720;SDS011;9489;50.948;3.114;2022-09-21T17:14:25;4.35;;;3.95;;
18720;SDS011;9489;50.948;3.114;2022-09-21T17:16:53;6.30;;;3.90;;
18720;SDS011;9489;50.948;3.114;2022-09-21T17:19:21;4.07;;;3.10;;
18720;SDS011;9489;50.948;3.114;2022-09-21T17:21:47;7.82;;;4.10;;
18720;SDS011;9489;50.948;3.114;2022-09-21T17:24:13;5.00;;;4.15;;
18720;SDS011;9489;50.948;3.114;2022-09-21T17:26:40;5.93;;;4.43;;
18720;SDS011;9489;50.948;3.114;2022-09-21T17:29:20;5.95;;;3.67;;
18720;SDS011;9489;50.948;3.114;2022-09-21T17:31:48;5.93;;;4.55;;
18720;SDS011;9489;50.948;3.114;2022-09-21T17:34:15;5.32;;;4.60;;
18720;SDS011;9489;50.948;3.114;2022-09-21T17:36:41;5.70;;;5.20;;
18720;SDS011;9489;50.948;3.114;2022-09-21T17:39:06;6.30;;;4.97;;
18720;SDS011;9489;50.948;3.114;2022-09-21T17:41:52;6.95;;;5.15;;
18720;SDS011;9489;50.948;3.114;2022-09-21T17:45:08;5.63;;;4.97;;
18720;SDS011;9489;50.948;3.114;2022-09-21T17:49:53;5.45;;;4.40;;
18720;SDS011;9489;50.948;3.114;2022-09-21T17:52:23;8.70;;;5.97;;
18720;SDS011;9489;50.948;3.114;2022-09-21T17:55:09;6.13;;;4.80;;
18720;SDS011;9489;50.948;3.114;2022-09-21T18:02:59;10.35;;;6.78;;
18720;SDS011;9489;50.948;3.114;2022-09-21T18:05:26;15.20;;;13.93;;
18720;SDS011;9489;50.948;3.114;2022-09-21T18:07:53;11.50;;;10.60;;
18720;SDS011;9489;50.948;3.114;2022-09-21T18:10:19;19.40;;;17.88;;
18720;SDS011;9489;50.948;3.114;2022-09-21T18:15:43;25.83;;;23.58;;
18720;SDS011;9489;50.948;3.114;2022-09-21T18:21:02;8.90;;;6.63;;
18720;SDS011;9489;50.948;3.114;2022-09-21T18:26:52;7.20;;;6.15;;
18720;SDS011;9489;50.948;3.114;2022-09-21T18:29:25;9.20;;;8.30;;
18720;SDS011;9489;50.948;3.114;2022-09-21T18:32:01;9.98;;;7.65;;
18720;SDS011;9489;50.948;3.114;2022-09-21T18:43:56;11.02;;;7.45;;
18720;SDS011;9489;50.948;3.114;2022-09-21T18:53:50;9.27;;;7.55;;
18720;SDS011;9489;50.948;3.114;2022-09-21T18:56:21;9.07;;;7.03;;
18720;SDS011;9489;50.948;3.114;2022-09-21T18:58:51;7.85;;;6.05;;
18720;SDS011;9489;50.948;3.114;2022-09-21T19:01:17;9.57;;;8.15;;
18720;SDS011;9489;50.948;3.114;2022-09-21T19:03:46;8.05;;;6.70;;
18720;SDS011;9489;50.948;3.114;2022-09-21T19:06:24;9.27;;;7.43;;
18720;SDS011;9489;50.948;3.114;2022-09-21T19:20:02;14.90;;;11.10;;
18720;SDS011;9489;50.948;3.114;2022-09-21T19:28:28;10.35;;;9.35;;
18720;SDS011;9489;50.948;3.114;2022-09-21T19:30:58;10.85;;;9.90;;
18720;SDS011;9489;50.948;3.114;2022-09-21T19:33:32;10.02;;;9.13;;
18720;SDS011;9489;50.948;3.114;2022-09-21T19:35:58;10.15;;;9.15;;
18720;SDS011;9489;50.948;3.114;2022-09-21T19:38:26;11.00;;;9.70;;
18720;SDS011;9489;50.948;3.114;2022-09-21T19:40:58;12.13;;;9.45;;